Lewistown, Missouri
Current Conditions -  °F | °C
As of 5:15 PM on Wednesday 26 Nov 2014 (Local Time) from KEOK Reporting Station
Unknown Precip Unknown Precip  
Wind Chill: -4°   Ceiling: 700
Heat Index:   Visibility: 6mi
Dew Point: -1°   Wind: 9mph
Humidity: 93%   Direction: 60°ENE
Pressure: 30.06"   Gusts: NA
Location:  40.09°N, 91.81°W
Report Text: KEOK 262315Z AUTO 06008KT 6SM -UP BKN007 OVC011 00/M01 A3006 RMK AO2
Loading
Personal Weather Stations






























Interactive Weather Map New forecast layout! Learn more

10-Day Weather Forecast

Advertisements
Track Severe Weather on mobile